sensor_id;sensor_type;location;lat;lon;timestamp;temperature;humidity
10453;DHT22;5274;51.992;8.518;2024-02-21T00:01:22;8.50;75.70
10453;DHT22;5274;51.992;8.518;2024-02-21T00:03:48;8.50;75.60
10453;DHT22;5274;51.992;8.518;2024-02-21T00:06:13;8.40;75.80
10453;DHT22;5274;51.992;8.518;2024-02-21T00:08:39;8.50;75.80
10453;DHT22;5274;51.992;8.518;2024-02-21T00:11:04;8.60;75.30
10453;DHT22;5274;51.992;8.518;2024-02-21T00:13:30;8.50;75.30
10453;DHT22;5274;51.992;8.518;2024-02-21T00:15:55;8.50;75.60
10453;DHT22;5274;51.992;8.518;2024-02-21T00:18:21;8.50;75.70
10453;DHT22;5274;51.992;8.518;2024-02-21T00:20:46;8.50;75.50
10453;DHT22;5274;51.992;8.518;2024-02-21T00:23:12;8.40;75.60
10453;DHT22;5274;51.992;8.518;2024-02-21T00:25:37;8.40;75.80
10453;DHT22;5274;51.992;8.518;2024-02-21T00:28:03;8.50;75.60
10453;DHT22;5274;51.992;8.518;2024-02-21T00:30:29;8.40;75.70
10453;DHT22;5274;51.992;8.518;2024-02-21T00:32:54;8.50;75.50
10453;DHT22;5274;51.992;8.518;2024-02-21T00:35:20;8.50;75.20
10453;DHT22;5274;51.992;8.518;2024-02-21T00:37:45;8.50;75.30
10453;DHT22;5274;51.992;8.518;2024-02-21T00:40:11;8.50;75.10
10453;DHT22;5274;51.992;8.518;2024-02-21T00:42:36;8.50;75.20
10453;DHT22;5274;51.992;8.518;2024-02-21T00:45:02;8.40;75.40
10453;DHT22;5274;51.992;8.518;2024-02-21T00:47:28;8.40;75.80
10453;DHT22;5274;51.992;8.518;2024-02-21T00:49:53;8.50;75.20
10453;DHT22;5274;51.992;8.518;2024-02-21T00:52:19;8.50;75.20
10453;DHT22;5274;51.992;8.518;2024-02-21T00:54:44;8.50;75.10
10453;DHT22;5274;51.992;8.518;2024-02-21T00:57:10;8.50;74.80
10453;DHT22;5274;51.992;8.518;2024-02-21T00:59:36;8.50;74.70
10453;DHT22;5274;51.992;8.518;2024-02-21T01:02:01;8.50;74.60
10453;DHT22;5274;51.992;8.518;2024-02-21T01:04:27;8.60;74.50
10453;DHT22;5274;51.992;8.518;2024-02-21T01:06:52;8.60;74.40
10453;DHT22;5274;51.992;8.518;2024-02-21T01:09:18;8.50;74.50
10453;DHT22;5274;51.992;8.518;2024-02-21T01:11:43;8.60;74.50
10453;DHT22;5274;51.992;8.518;2024-02-21T01:14:09;8.50;74.60
10453;DHT22;5274;51.992;8.518;2024-02-21T01:16:34;8.50;74.60
10453;DHT22;5274;51.992;8.518;2024-02-21T01:18:59;8.50;74.50
10453;DHT22;5274;51.992;8.518;2024-02-21T01:21:25;8.50;74.40
10453;DHT22;5274;51.992;8.518;2024-02-21T01:23:50;8.60;74.20
10453;DHT22;5274;51.992;8.518;2024-02-21T01:26:16;8.50;74.50
10453;DHT22;5274;51.992;8.518;2024-02-21T01:28:41;8.50;74.40
10453;DHT22;5274;51.992;8.518;2024-02-21T01:31:07;8.50;74.40
10453;DHT22;5274;51.992;8.518;2024-02-21T01:33:33;8.60;74.10
10453;DHT22;5274;51.992;8.518;2024-02-21T01:36:03;8.50;74.50
10453;DHT22;5274;51.992;8.518;2024-02-21T01:38:29;8.50;74.50
10453;DHT22;5274;51.992;8.518;2024-02-21T01:40:55;8.50;74.60
10453;DHT22;5274;51.992;8.518;2024-02-21T01:43:21;8.50;74.40
10453;DHT22;5274;51.992;8.518;2024-02-21T01:45:52;8.50;74.20
10453;DHT22;5274;51.992;8.518;2024-02-21T01:48:18;8.60;74.00
10453;DHT22;5274;51.992;8.518;2024-02-21T01:50:47;8.60;74.10
10453;DHT22;5274;51.992;8.518;2024-02-21T01:53:35;8.60;73.90
10453;DHT22;5274;51.992;8.518;2024-02-21T01:56:02;8.60;73.70
10453;DHT22;5274;51.992;8.518;2024-02-21T01:58:30;8.70;73.50
10453;DHT22;5274;51.992;8.518;2024-02-21T02:00:56;8.60;73.90
10453;DHT22;5274;51.992;8.518;2024-02-21T02:03:22;8.60;73.80
10453;DHT22;5274;51.992;8.518;2024-02-21T02:05:49;8.60;73.60
10453;DHT22;5274;51.992;8.518;2024-02-21T02:08:16;8.60;73.70
10453;DHT22;5274;51.992;8.518;2024-02-21T02:10:42;8.60;73.80
10453;DHT22;5274;51.992;8.518;2024-02-21T02:13:08;8.60;73.70
10453;DHT22;5274;51.992;8.518;2024-02-21T02:15:45;8.60;73.80
10453;DHT22;5274;51.992;8.518;2024-02-21T02:18:11;8.60;73.70
10453;DHT22;5274;51.992;8.518;2024-02-21T02:20:37;8.70;73.50
10453;DHT22;5274;51.992;8.518;2024-02-21T02:23:09;8.50;73.90
10453;DHT22;5274;51.992;8.518;2024-02-21T02:25:36;8.60;74.10
10453;DHT22;5274;51.992;8.518;2024-02-21T02:28:03;8.60;73.60
10453;DHT22;5274;51.992;8.518;2024-02-21T02:30:31;8.70;73.60
10453;DHT22;5274;51.992;8.518;2024-02-21T02:32:56;8.70;73.40
10453;DHT22;5274;51.992;8.518;2024-02-21T02:35:22;8.70;73.30
10453;DHT22;5274;51.992;8.518;2024-02-21T02:37:49;8.70;73.30
10453;DHT22;5274;51.992;8.518;2024-02-21T02:40:15;8.70;73.10
10453;DHT22;5274;51.992;8.518;2024-02-21T02:42:40;8.70;73.40
10453;DHT22;5274;51.992;8.518;2024-02-21T02:45:06;8.70;73.40
10453;DHT22;5274;51.992;8.518;2024-02-21T02:47:32;8.70;73.30
10453;DHT22;5274;51.992;8.518;2024-02-21T02:50:13;8.70;73.40
10453;DHT22;5274;51.992;8.518;2024-02-21T02:52:39;8.60;73.60
10453;DHT22;5274;51.992;8.518;2024-02-21T02:55:05;8.70;73.70
10453;DHT22;5274;51.992;8.518;2024-02-21T02:57:31;8.70;73.60
10453;DHT22;5274;51.992;8.518;2024-02-21T02:59:56;8.70;73.60
10453;DHT22;5274;51.992;8.518;2024-02-21T03:02:22;8.70;73.50
10453;DHT22;5274;51.992;8.518;2024-02-21T03:04:48;8.70;73.30
10453;DHT22;5274;51.992;8.518;2024-02-21T03:07:14;8.70;73.10
10453;DHT22;5274;51.992;8.518;2024-02-21T03:09:40;8.70;73.30
10453;DHT22;5274;51.992;8.518;2024-02-21T03:12:06;8.60;73.40
10453;DHT22;5274;51.992;8.518;2024-02-21T03:14:32;8.60;73.40
10453;DHT22;5274;51.992;8.518;2024-02-21T03:16:58;8.70;73.20
10453;DHT22;5274;51.992;8.518;2024-02-21T03:19:24;8.60;73.20
10453;DHT22;5274;51.992;8.518;2024-02-21T03:21:51;8.60;73.60
10453;DHT22;5274;51.992;8.518;2024-02-21T03:24:17;8.60;73.30
10453;DHT22;5274;51.992;8.518;2024-02-21T03:26:42;8.60;73.40
10453;DHT22;5274;51.992;8.518;2024-02-21T03:29:08;8.60;73.00
10453;DHT22;5274;51.992;8.518;2024-02-21T03:31:37;8.60;73.40
10453;DHT22;5274;51.992;8.518;2024-02-21T03:34:03;8.60;73.40
10453;DHT22;5274;51.992;8.518;2024-02-21T03:36:28;8.60;73.40
10453;DHT22;5274;51.992;8.518;2024-02-21T03:38:54;8.70;73.10
10453;DHT22;5274;51.992;8.518;2024-02-21T03:41:20;8.70;72.90
10453;DHT22;5274;51.992;8.518;2024-02-21T03:43:46;8.70;72.80
10453;DHT22;5274;51.992;8.518;2024-02-21T03:46:11;8.70;73.00
10453;DHT22;5274;51.992;8.518;2024-02-21T03:48:37;8.70;72.90
10453;DHT22;5274;51.992;8.518;2024-02-21T03:51:02;8.80;72.60
10453;DHT22;5274;51.992;8.518;2024-02-21T03:53:28;8.80;72.50
10453;DHT22;5274;51.992;8.518;2024-02-21T03:55:54;8.80;72.20
10453;DHT22;5274;51.992;8.518;2024-02-21T03:58:20;8.70;72.50
10453;DHT22;5274;51.992;8.518;2024-02-21T04:00:46;8.80;72.30
10453;DHT22;5274;51.992;8.518;2024-02-21T04:03:11;8.80;72.40
10453;DHT22;5274;51.992;8.518;2024-02-21T04:05:36;8.70;72.30
10453;DHT22;5274;51.992;8.518;2024-02-21T04:08:06;8.70;72.40
10453;DHT22;5274;51.992;8.518;2024-02-21T04:10:31;8.70;72.50
10453;DHT22;5274;51.992;8.518;2024-02-21T04:12:57;8.70;72.40
10453;DHT22;5274;51.992;8.518;2024-02-21T04:15:23;8.60;72.40
10453;DHT22;5274;51.992;8.518;2024-02-21T04:17:48;8.70;72.60
10453;DHT22;5274;51.992;8.518;2024-02-21T04:20:15;8.80;72.10
10453;DHT22;5274;51.992;8.518;2024-02-21T04:22:43;8.80;71.80
10453;DHT22;5274;51.992;8.518;2024-02-21T04:25:09;8.70;72.10
10453;DHT22;5274;51.992;8.518;2024-02-21T04:27:36;8.70;72.00
10453;DHT22;5274;51.992;8.518;2024-02-21T04:30:02;8.80;71.70
10453;DHT22;5274;51.992;8.518;2024-02-21T04:32:28;8.80;71.50
10453;DHT22;5274;51.992;8.518;2024-02-21T04:34:54;8.70;72.00
10453;DHT22;5274;51.992;8.518;2024-02-21T04:37:20;8.70;72.30
10453;DHT22;5274;51.992;8.518;2024-02-21T04:39:46;8.70;72.30
10453;DHT22;5274;51.992;8.518;2024-02-21T04:42:11;8.70;72.10
10453;DHT22;5274;51.992;8.518;2024-02-21T04:44:38;8.70;72.10
10453;DHT22;5274;51.992;8.518;2024-02-21T04:47:03;8.60;72.50
10453;DHT22;5274;51.992;8.518;2024-02-21T04:49:30;8.80;72.00
10453;DHT22;5274;51.992;8.518;2024-02-21T04:51:55;8.80;71.90
10453;DHT22;5274;51.992;8.518;2024-02-21T04:54:21;8.80;72.10
10453;DHT22;5274;51.992;8.518;2024-02-21T04:56:46;8.80;72.10
10453;DHT22;5274;51.992;8.518;2024-02-21T04:59:12;8.80;72.10
10453;DHT22;5274;51.992;8.518;2024-02-21T05:01:37;8.80;72.10
10453;DHT22;5274;51.992;8.518;2024-02-21T05:04:03;8.70;72.10
10453;DHT22;5274;51.992;8.518;2024-02-21T05:06:28;8.70;72.20
10453;DHT22;5274;51.992;8.518;2024-02-21T05:08:54;8.70;72.30
10453;DHT22;5274;51.992;8.518;2024-02-21T05:11:21;8.70;72.50
10453;DHT22;5274;51.992;8.518;2024-02-21T05:13:46;8.80;72.40
10453;DHT22;5274;51.992;8.518;2024-02-21T05:16:12;8.70;72.40
10453;DHT22;5274;51.992;8.518;2024-02-21T05:18:38;8.60;73.30
10453;DHT22;5274;51.992;8.518;2024-02-21T05:21:03;8.60;73.80
10453;DHT22;5274;51.992;8.518;2024-02-21T05:23:29;8.50;74.40
10453;DHT22;5274;51.992;8.518;2024-02-21T05:25:55;8.40;75.10
10453;DHT22;5274;51.992;8.518;2024-02-21T05:28:20;8.40;75.40
10453;DHT22;5274;51.992;8.518;2024-02-21T05:30:46;8.40;75.60
10453;DHT22;5274;51.992;8.518;2024-02-21T05:33:11;8.30;76.20
10453;DHT22;5274;51.992;8.518;2024-02-21T05:35:38;8.40;76.10
10453;DHT22;5274;51.992;8.518;2024-02-21T05:38:03;8.50;75.40
10453;DHT22;5274;51.992;8.518;2024-02-21T05:40:33;8.40;75.70
10453;DHT22;5274;51.992;8.518;2024-02-21T05:42:58;8.50;75.50
10453;DHT22;5274;51.992;8.518;2024-02-21T05:45:24;8.40;75.70
10453;DHT22;5274;51.992;8.518;2024-02-21T05:47:49;8.30;75.80
10453;DHT22;5274;51.992;8.518;2024-02-21T05:50:15;8.40;75.60
10453;DHT22;5274;51.992;8.518;2024-02-21T05:52:40;8.40;75.40
10453;DHT22;5274;51.992;8.518;2024-02-21T05:55:07;8.40;75.20
10453;DHT22;5274;51.992;8.518;2024-02-21T05:57:33;8.40;75.20
10453;DHT22;5274;51.992;8.518;2024-02-21T05:59:58;8.50;75.10
10453;DHT22;5274;51.992;8.518;2024-02-21T06:02:23;8.50;75.20
10453;DHT22;5274;51.992;8.518;2024-02-21T06:04:49;8.50;74.40
10453;DHT22;5274;51.992;8.518;2024-02-21T06:07:14;8.50;74.50
10453;DHT22;5274;51.992;8.518;2024-02-21T06:09:40;8.40;74.70
10453;DHT22;5274;51.992;8.518;2024-02-21T06:12:06;8.40;75.10
10453;DHT22;5274;51.992;8.518;2024-02-21T06:14:31;8.50;74.90
10453;DHT22;5274;51.992;8.518;2024-02-21T06:16:57;8.40;74.80
10453;DHT22;5274;51.992;8.518;2024-02-21T06:19:22;8.40;74.90
10453;DHT22;5274;51.992;8.518;2024-02-21T06:21:48;8.40;74.80
10453;DHT22;5274;51.992;8.518;2024-02-21T06:24:13;8.40;74.90
10453;DHT22;5274;51.992;8.518;2024-02-21T06:26:40;8.30;75.30
10453;DHT22;5274;51.992;8.518;2024-02-21T06:29:06;8.30;75.30
10453;DHT22;5274;51.992;8.518;2024-02-21T06:31:31;8.40;74.90
10453;DHT22;5274;51.992;8.518;2024-02-21T06:33:57;8.50;74.70
10453;DHT22;5274;51.992;8.518;2024-02-21T06:36:22;8.50;74.20
10453;DHT22;5274;51.992;8.518;2024-02-21T06:38:48;8.50;74.20
10453;DHT22;5274;51.992;8.518;2024-02-21T06:41:17;8.40;74.40
10453;DHT22;5274;51.992;8.518;2024-02-21T06:43:47;8.50;73.90
10453;DHT22;5274;51.992;8.518;2024-02-21T06:46:26;8.50;73.70
10453;DHT22;5274;51.992;8.518;2024-02-21T06:48:51;8.60;73.20
10453;DHT22;5274;51.992;8.518;2024-02-21T06:51:17;8.60;73.10
10453;DHT22;5274;51.992;8.518;2024-02-21T06:53:42;8.60;72.80
10453;DHT22;5274;51.992;8.518;2024-02-21T06:56:09;8.60;73.00
10453;DHT22;5274;51.992;8.518;2024-02-21T06:58:35;8.60;72.70
10453;DHT22;5274;51.992;8.518;2024-02-21T07:01:01;8.60;72.30
10453;DHT22;5274;51.992;8.518;2024-02-21T07:03:27;8.60;72.00
10453;DHT22;5274;51.992;8.518;2024-02-21T07:05:52;8.60;71.80
10453;DHT22;5274;51.992;8.518;2024-02-21T07:08:18;8.50;72.00
10453;DHT22;5274;51.992;8.518;2024-02-21T07:10:43;8.50;72.00
10453;DHT22;5274;51.992;8.518;2024-02-21T07:13:09;8.50;72.00
10453;DHT22;5274;51.992;8.518;2024-02-21T07:15:34;8.50;71.60
10453;DHT22;5274;51.992;8.518;2024-02-21T07:18:01;8.60;71.60
10453;DHT22;5274;51.992;8.518;2024-02-21T07:20:27;8.60;71.50
10453;DHT22;5274;51.992;8.518;2024-02-21T07:22:52;8.60;71.60
10453;DHT22;5274;51.992;8.518;2024-02-21T07:25:18;8.70;71.00
10453;DHT22;5274;51.992;8.518;2024-02-21T07:27:44;8.70;70.90
10453;DHT22;5274;51.992;8.518;2024-02-21T07:30:10;8.80;70.60
10453;DHT22;5274;51.992;8.518;2024-02-21T07:32:36;8.80;70.60
10453;DHT22;5274;51.992;8.518;2024-02-21T07:35:01;8.90;70.30
10453;DHT22;5274;51.992;8.518;2024-02-21T07:37:27;8.90;70.00
10453;DHT22;5274;51.992;8.518;2024-02-21T07:39:52;8.90;70.30
10453;DHT22;5274;51.992;8.518;2024-02-21T07:42:18;8.90;70.00
10453;DHT22;5274;51.992;8.518;2024-02-21T07:44:44;8.80;69.90
10453;DHT22;5274;51.992;8.518;2024-02-21T07:47:09;8.80;70.20
10453;DHT22;5274;51.992;8.518;2024-02-21T07:49:43;8.70;70.90
10453;DHT22;5274;51.992;8.518;2024-02-21T07:52:09;8.80;70.70
10453;DHT22;5274;51.992;8.518;2024-02-21T07:54:35;8.80;70.50
10453;DHT22;5274;51.992;8.518;2024-02-21T07:57:00;8.90;70.20
10453;DHT22;5274;51.992;8.518;2024-02-21T07:59:26;8.90;70.20
10453;DHT22;5274;51.992;8.518;2024-02-21T08:01:51;8.90;69.70
10453;DHT22;5274;51.992;8.518;2024-02-21T08:04:17;9.00;69.80
10453;DHT22;5274;51.992;8.518;2024-02-21T08:06:42;9.00;69.40
10453;DHT22;5274;51.992;8.518;2024-02-21T08:09:10;9.00;69.30
10453;DHT22;5274;51.992;8.518;2024-02-21T08:11:35;9.00;69.20
10453;DHT22;5274;51.992;8.518;2024-02-21T08:14:01;9.00;69.10
10453;DHT22;5274;51.992;8.518;2024-02-21T08:16:27;9.00;69.00
10453;DHT22;5274;51.992;8.518;2024-02-21T08:18:53;9.00;68.50
10453;DHT22;5274;51.992;8.518;2024-02-21T08:21:18;9.10;68.60
10453;DHT22;5274;51.992;8.518;2024-02-21T08:23:44;9.00;68.60
10453;DHT22;5274;51.992;8.518;2024-02-21T08:26:09;9.10;68.40
10453;DHT22;5274;51.992;8.518;2024-02-21T08:28:35;9.30;67.80
10453;DHT22;5274;51.992;8.518;2024-02-21T08:31:01;9.30;67.50
10453;DHT22;5274;51.992;8.518;2024-02-21T08:33:26;9.40;67.70
10453;DHT22;5274;51.992;8.518;2024-02-21T08:35:52;9.40;67.80
10453;DHT22;5274;51.992;8.518;2024-02-21T08:38:18;9.60;67.30
10453;DHT22;5274;51.992;8.518;2024-02-21T08:40:44;9.60;66.90
10453;DHT22;5274;51.992;8.518;2024-02-21T08:43:09;9.60;67.00
10453;DHT22;5274;51.992;8.518;2024-02-21T08:45:35;9.70;66.90
10453;DHT22;5274;51.992;8.518;2024-02-21T08:48:00;9.90;66.30
10453;DHT22;5274;51.992;8.518;2024-02-21T08:50:26;10.00;65.30
10453;DHT22;5274;51.992;8.518;2024-02-21T08:52:51;10.00;65.40
10453;DHT22;5274;51.992;8.518;2024-02-21T08:55:17;9.90;65.50
10453;DHT22;5274;51.992;8.518;2024-02-21T08:57:42;9.90;65.70
10453;DHT22;5274;51.992;8.518;2024-02-21T09:00:08;10.00;65.40
10453;DHT22;5274;51.992;8.518;2024-02-21T09:02:40;10.00;64.80
10453;DHT22;5274;51.992;8.518;2024-02-21T09:05:06;9.80;65.90
10453;DHT22;5274;51.992;8.518;2024-02-21T09:07:32;9.90;65.50
10453;DHT22;5274;51.992;8.518;2024-02-21T09:09:57;9.90;65.20
10453;DHT22;5274;51.992;8.518;2024-02-21T09:12:23;9.90;65.30
10453;DHT22;5274;51.992;8.518;2024-02-21T09:14:49;9.90;65.20
10453;DHT22;5274;51.992;8.518;2024-02-21T09:17:16;9.90;65.30
10453;DHT22;5274;51.992;8.518;2024-02-21T09:19:43;9.90;65.40
10453;DHT22;5274;51.992;8.518;2024-02-21T09:22:09;9.80;65.20
10453;DHT22;5274;51.992;8.518;2024-02-21T09:24:34;9.80;65.30
10453;DHT22;5274;51.992;8.518;2024-02-21T09:26:59;9.90;65.30
10453;DHT22;5274;51.992;8.518;2024-02-21T09:29:25;10.00;65.00
10453;DHT22;5274;51.992;8.518;2024-02-21T09:31:51;10.00;65.10
10453;DHT22;5274;51.992;8.518;2024-02-21T09:34:17;10.10;64.30
10453;DHT22;5274;51.992;8.518;2024-02-21T09:36:44;10.20;63.60
10453;DHT22;5274;51.992;8.518;2024-02-21T09:39:10;10.20;63.40
10453;DHT22;5274;51.992;8.518;2024-02-21T09:41:45;10.30;63.50
10453;DHT22;5274;51.992;8.518;2024-02-21T09:44:13;10.30;63.00
10453;DHT22;5274;51.992;8.518;2024-02-21T09:47:03;10.30;62.90
10453;DHT22;5274;51.992;8.518;2024-02-21T09:49:31;10.30;63.00
10453;DHT22;5274;51.992;8.518;2024-02-21T09:52:04;10.30;62.70
10453;DHT22;5274;51.992;8.518;2024-02-21T09:54:32;10.30;62.70
10453;DHT22;5274;51.992;8.518;2024-02-21T09:56:59;10.20;62.80
10453;DHT22;5274;51.992;8.518;2024-02-21T09:59:27;10.30;62.60
10453;DHT22;5274;51.992;8.518;2024-02-21T10:01:52;10.30;62.00
10453;DHT22;5274;51.992;8.518;2024-02-21T10:04:19;10.30;62.10
10453;DHT22;5274;51.992;8.518;2024-02-21T10:06:45;10.30;62.00
10453;DHT22;5274;51.992;8.518;2024-02-21T10:09:24;10.30;62.40
10453;DHT22;5274;51.992;8.518;2024-02-21T10:11:50;10.40;61.80
10453;DHT22;5274;51.992;8.518;2024-02-21T10:14:16;10.40;61.50
10453;DHT22;5274;51.992;8.518;2024-02-21T10:16:43;10.40;61.60
10453;DHT22;5274;51.992;8.518;2024-02-21T10:19:17;10.40;61.50
10453;DHT22;5274;51.992;8.518;2024-02-21T10:21:42;10.40;61.30
10453;DHT22;5274;51.992;8.518;2024-02-21T10:24:08;10.40;60.80
10453;DHT22;5274;51.992;8.518;2024-02-21T10:26:35;10.40;61.70
10453;DHT22;5274;51.992;8.518;2024-02-21T10:29:02;10.40;60.90
10453;DHT22;5274;51.992;8.518;2024-02-21T10:31:28;10.40;61.30
10453;DHT22;5274;51.992;8.518;2024-02-21T10:33:55;10.40;60.90
10453;DHT22;5274;51.992;8.518;2024-02-21T10:36:20;10.50;60.50
10453;DHT22;5274;51.992;8.518;2024-02-21T10:38:46;10.40;60.50
10453;DHT22;5274;51.992;8.518;2024-02-21T10:41:14;10.30;61.10
10453;DHT22;5274;51.992;8.518;2024-02-21T10:43:41;10.30;61.00
10453;DHT22;5274;51.992;8.518;2024-02-21T10:46:07;10.30;62.00
10453;DHT22;5274;51.992;8.518;2024-02-21T10:48:42;10.30;61.70
10453;DHT22;5274;51.992;8.518;2024-02-21T10:53:46;10.20;62.10
10453;DHT22;5274;51.992;8.518;2024-02-21T10:56:33;10.10;62.60
10453;DHT22;5274;51.992;8.518;2024-02-21T10:59:06;10.10;62.60
10453;DHT22;5274;51.992;8.518;2024-02-21T11:01:32;10.00;62.70
10453;DHT22;5274;51.992;8.518;2024-02-21T11:04:03;9.90;63.40
10453;DHT22;5274;51.992;8.518;2024-02-21T11:06:29;9.80;63.80
10453;DHT22;5274;51.992;8.518;2024-02-21T11:09:05;9.80;63.90
10453;DHT22;5274;51.992;8.518;2024-02-21T11:11:38;9.70;64.60
10453;DHT22;5274;51.992;8.518;2024-02-21T11:14:25;9.70;65.20
10453;DHT22;5274;51.992;8.518;2024-02-21T11:16:51;9.80;64.60
10453;DHT22;5274;51.992;8.518;2024-02-21T11:19:25;9.80;64.50
10453;DHT22;5274;51.992;8.518;2024-02-21T11:21:52;9.90;65.10
10453;DHT22;5274;51.992;8.518;2024-02-21T11:24:32;9.90;65.20
10453;DHT22;5274;51.992;8.518;2024-02-21T11:27:13;10.10;65.20
10453;DHT22;5274;51.992;8.518;2024-02-21T11:29:49;10.30;64.20
10453;DHT22;5274;51.992;8.518;2024-02-21T11:32:17;10.30;63.60
10453;DHT22;5274;51.992;8.518;2024-02-21T11:35:02;10.30;63.80
10453;DHT22;5274;51.992;8.518;2024-02-21T11:37:29;10.40;63.10
10453;DHT22;5274;51.992;8.518;2024-02-21T11:39:56;10.40;63.10
10453;DHT22;5274;51.992;8.518;2024-02-21T11:42:21;10.30;63.30
10453;DHT22;5274;51.992;8.518;2024-02-21T11:44:47;10.40;63.10
10453;DHT22;5274;51.992;8.518;2024-02-21T11:47:14;10.30;63.30
10453;DHT22;5274;51.992;8.518;2024-02-21T11:49:47;10.40;63.10
10453;DHT22;5274;51.992;8.518;2024-02-21T11:52:15;10.30;63.20
10453;DHT22;5274;51.992;8.518;2024-02-21T11:54:42;10.30;63.00
10453;DHT22;5274;51.992;8.518;2024-02-21T11:57:07;10.30;63.30
10453;DHT22;5274;51.992;8.518;2024-02-21T11:59:34;10.20;63.00
10453;DHT22;5274;51.992;8.518;2024-02-21T12:02:00;10.20;63.10
10453;DHT22;5274;51.992;8.518;2024-02-21T12:04:26;10.20;63.50
10453;DHT22;5274;51.992;8.518;2024-02-21T12:06:54;10.20;63.50
10453;DHT22;5274;51.992;8.518;2024-02-21T12:09:22;10.30;63.30
10453;DHT22;5274;51.992;8.518;2024-02-21T12:12:00;10.30;63.30
10453;DHT22;5274;51.992;8.518;2024-02-21T12:14:27;10.30;63.20
10453;DHT22;5274;51.992;8.518;2024-02-21T12:16:53;10.20;63.80
10453;DHT22;5274;51.992;8.518;2024-02-21T12:19:20;10.30;63.50
10453;DHT22;5274;51.992;8.518;2024-02-21T12:21:45;10.30;63.60
10453;DHT22;5274;51.992;8.518;2024-02-21T12:24:22;10.20;64.00
10453;DHT22;5274;51.992;8.518;2024-02-21T12:26:51;10.10;63.80
10453;DHT22;5274;51.992;8.518;2024-02-21T12:29:20;10.10;64.10
10453;DHT22;5274;51.992;8.518;2024-02-21T12:31:46;10.10;64.00
10453;DHT22;5274;51.992;8.518;2024-02-21T12:34:12;10.00;64.20
10453;DHT22;5274;51.992;8.518;2024-02-21T12:36:42;9.80;64.90
10453;DHT22;5274;51.992;8.518;2024-02-21T12:39:10;9.70;65.90
10453;DHT22;5274;51.992;8.518;2024-02-21T12:41:37;9.80;66.50
10453;DHT22;5274;51.992;8.518;2024-02-21T12:44:09;10.00;66.40
10453;DHT22;5274;51.992;8.518;2024-02-21T12:46:37;10.20;66.00
10453;DHT22;5274;51.992;8.518;2024-02-21T12:49:03;10.50;65.20
10453;DHT22;5274;51.992;8.518;2024-02-21T12:51:29;10.70;64.40
10453;DHT22;5274;51.992;8.518;2024-02-21T12:53:56;10.90;63.80
10453;DHT22;5274;51.992;8.518;2024-02-21T12:56:21;10.80;63.80
10453;DHT22;5274;51.992;8.518;2024-02-21T12:58:47;10.80;63.60
10453;DHT22;5274;51.992;8.518;2024-02-21T13:01:12;10.80;63.30
10453;DHT22;5274;51.992;8.518;2024-02-21T13:03:38;10.80;63.30
10453;DHT22;5274;51.992;8.518;2024-02-21T13:06:04;10.70;63.40
10453;DHT22;5274;51.992;8.518;2024-02-21T13:08:30;10.50;64.00
10453;DHT22;5274;51.992;8.518;2024-02-21T13:10:55;10.30;64.70
10453;DHT22;5274;51.992;8.518;2024-02-21T13:13:21;10.20;65.30
10453;DHT22;5274;51.992;8.518;2024-02-21T13:15:46;10.20;65.40
10453;DHT22;5274;51.992;8.518;2024-02-21T13:18:12;10.10;65.80
10453;DHT22;5274;51.992;8.518;2024-02-21T13:20:38;10.10;67.10
10453;DHT22;5274;51.992;8.518;2024-02-21T13:23:03;10.30;66.20
10453;DHT22;5274;51.992;8.518;2024-02-21T13:25:29;10.50;65.70
10453;DHT22;5274;51.992;8.518;2024-02-21T13:27:55;10.70;65.30
10453;DHT22;5274;51.992;8.518;2024-02-21T13:30:23;10.90;64.60
10453;DHT22;5274;51.992;8.518;2024-02-21T13:32:51;11.10;63.40
10453;DHT22;5274;51.992;8.518;2024-02-21T13:35:16;11.10;63.60
10453;DHT22;5274;51.992;8.518;2024-02-21T13:37:43;11.00;62.60
10453;DHT22;5274;51.992;8.518;2024-02-21T13:40:09;11.00;62.00
10453;DHT22;5274;51.992;8.518;2024-02-21T13:42:35;10.90;62.00
10453;DHT22;5274;51.992;8.518;2024-02-21T13:45:01;10.90;61.90
10453;DHT22;5274;51.992;8.518;2024-02-21T13:47:27;10.90;61.80
10453;DHT22;5274;51.992;8.518;2024-02-21T13:49:52;10.80;62.40
10453;DHT22;5274;51.992;8.518;2024-02-21T13:52:18;10.80;62.40
10453;DHT22;5274;51.992;8.518;2024-02-21T13:54:47;10.90;62.50
10453;DHT22;5274;51.992;8.518;2024-02-21T13:57:12;11.00;61.10
10453;DHT22;5274;51.992;8.518;2024-02-21T13:59:39;10.90;61.10
10453;DHT22;5274;51.992;8.518;2024-02-21T14:02:05;10.90;60.90
10453;DHT22;5274;51.992;8.518;2024-02-21T14:04:33;11.00;60.10
10453;DHT22;5274;51.992;8.518;2024-02-21T14:06:58;11.00;59.70
10453;DHT22;5274;51.992;8.518;2024-02-21T14:09:24;11.00;59.00
10453;DHT22;5274;51.992;8.518;2024-02-21T14:11:49;10.90;59.20
10453;DHT22;5274;51.992;8.518;2024-02-21T14:14:15;10.70;60.00
10453;DHT22;5274;51.992;8.518;2024-02-21T14:16:41;10.70;60.50
10453;DHT22;5274;51.992;8.518;2024-02-21T14:19:06;10.70;60.50
10453;DHT22;5274;51.992;8.518;2024-02-21T14:21:34;10.80;60.80
10453;DHT22;5274;51.992;8.518;2024-02-21T14:23:59;10.80;61.40
10453;DHT22;5274;51.992;8.518;2024-02-21T14:26:28;10.80;61.10
10453;DHT22;5274;51.992;8.518;2024-02-21T14:28:55;11.10;59.90
10453;DHT22;5274;51.992;8.518;2024-02-21T14:31:22;11.20;59.50
10453;DHT22;5274;51.992;8.518;2024-02-21T14:33:47;11.30;58.60
10453;DHT22;5274;51.992;8.518;2024-02-21T14:36:13;11.30;59.20
10453;DHT22;5274;51.992;8.518;2024-02-21T14:38:41;11.20;59.10
10453;DHT22;5274;51.992;8.518;2024-02-21T14:41:06;11.40;59.00
10453;DHT22;5274;51.992;8.518;2024-02-21T14:43:32;11.40;58.00
10453;DHT22;5274;51.992;8.518;2024-02-21T14:45:57;11.40;58.30
10453;DHT22;5274;51.992;8.518;2024-02-21T14:48:23;11.40;58.20
10453;DHT22;5274;51.992;8.518;2024-02-21T14:50:49;11.40;58.30
10453;DHT22;5274;51.992;8.518;2024-02-21T14:53:15;11.40;57.50
10453;DHT22;5274;51.992;8.518;2024-02-21T14:55:40;11.40;58.00
10453;DHT22;5274;51.992;8.518;2024-02-21T14:58:07;11.50;56.70
10453;DHT22;5274;51.992;8.518;2024-02-21T15:00:33;11.50;56.20
10453;DHT22;5274;51.992;8.518;2024-02-21T15:02:59;11.40;56.30
10453;DHT22;5274;51.992;8.518;2024-02-21T15:05:24;11.30;56.40
10453;DHT22;5274;51.992;8.518;2024-02-21T15:07:51;11.20;57.80
10453;DHT22;5274;51.992;8.518;2024-02-21T15:10:16;11.10;58.60
10453;DHT22;5274;51.992;8.518;2024-02-21T15:12:47;11.10;57.70
10453;DHT22;5274;51.992;8.518;2024-02-21T15:15:13;11.10;58.00
10453;DHT22;5274;51.992;8.518;2024-02-21T15:17:39;11.00;59.10
10453;DHT22;5274;51.992;8.518;2024-02-21T15:20:05;11.20;57.70
10453;DHT22;5274;51.992;8.518;2024-02-21T15:22:33;11.30;57.70
10453;DHT22;5274;51.992;8.518;2024-02-21T15:24:59;11.30;57.20
10453;DHT22;5274;51.992;8.518;2024-02-21T15:27:25;11.30;57.00
10453;DHT22;5274;51.992;8.518;2024-02-21T15:29:51;11.30;56.80
10453;DHT22;5274;51.992;8.518;2024-02-21T15:32:17;11.30;56.70
10453;DHT22;5274;51.992;8.518;2024-02-21T15:34:43;11.20;57.30
10453;DHT22;5274;51.992;8.518;2024-02-21T15:37:09;11.10;57.80
10453;DHT22;5274;51.992;8.518;2024-02-21T15:39:36;11.00;57.60
10453;DHT22;5274;51.992;8.518;2024-02-21T15:42:01;11.00;57.50
10453;DHT22;5274;51.992;8.518;2024-02-21T15:44:27;11.00;58.00
10453;DHT22;5274;51.992;8.518;2024-02-21T15:46:52;11.00;57.70
10453;DHT22;5274;51.992;8.518;2024-02-21T15:49:18;11.00;57.70
10453;DHT22;5274;51.992;8.518;2024-02-21T15:51:43;10.90;58.20
10453;DHT22;5274;51.992;8.518;2024-02-21T15:54:09;10.90;58.20